createdAt,value
2019-02-07T00:00:57.092Z,14.90
2019-02-07T00:03:28.606Z,14.93
2019-02-07T00:06:00.958Z,14.73
2019-02-07T00:08:33.126Z,14.73
2019-02-07T00:11:04.595Z,14.77
2019-02-07T00:13:35.910Z,14.17
2019-02-07T00:16:06.584Z,14.87
2019-02-07T00:18:37.512Z,15.53
2019-02-07T00:21:08.847Z,14.80
2019-02-07T00:23:40.008Z,14.67
2019-02-07T00:26:11.199Z,15.37
2019-02-07T00:28:43.210Z,14.97
2019-02-07T00:31:13.967Z,14.83
2019-02-07T00:33:44.576Z,15.03
2019-02-07T00:36:17.879Z,15.20
2019-02-07T00:38:48.961Z,15.60
2019-02-07T00:41:20.331Z,14.70
2019-02-07T00:43:52.006Z,13.93
2019-02-07T00:46:23.278Z,14.77
2019-02-07T00:48:54.023Z,15.43
2019-02-07T00:51:36.974Z,14.50
2019-02-07T00:54:09.037Z,14.60
2019-02-07T00:56:40.838Z,14.80
2019-02-07T00:59:13.678Z,14.03
2019-02-07T01:01:46.407Z,15.30
2019-02-07T01:04:20.949Z,15.13
2019-02-07T01:06:52.727Z,15.53
2019-02-07T01:09:23.974Z,15.37
2019-02-07T01:11:55.699Z,15.53
2019-02-07T01:14:28.907Z,14.97
2019-02-07T01:16:59.527Z,15.60
2019-02-07T01:19:31.053Z,14.80
2019-02-07T01:22:02.228Z,15.07
2019-02-07T01:24:32.578Z,15.47
2019-02-07T01:27:03.335Z,15.43
2019-02-07T01:29:35.223Z,15.60
2019-02-07T01:32:06.379Z,15.63
2019-02-07T01:34:39.432Z,14.90
2019-02-07T01:37:12.010Z,15.37
2019-02-07T01:39:43.853Z,16.57
2019-02-07T01:42:15.534Z,15.87
2019-02-07T01:44:48.998Z,14.80
2019-02-07T01:47:21.579Z,15.37
2019-02-07T01:49:53.921Z,16.10
2019-02-07T01:52:29.585Z,15.67
2019-02-07T01:55:01.087Z,16.23
2019-02-07T01:57:33.225Z,15.93
2019-02-07T02:00:09.578Z,16.77
2019-02-07T02:02:41.421Z,15.67
2019-02-07T02:05:13.897Z,15.77
2019-02-07T02:07:45.384Z,16.53
2019-02-07T02:10:23.273Z,16.27
2019-02-07T02:12:54.456Z,16.47
2019-02-07T02:15:27.458Z,17.47
2019-02-07T02:17:58.607Z,16.30
2019-02-07T02:20:31.042Z,16.73
2019-02-07T02:23:02.025Z,17.77
2019-02-07T02:25:32.699Z,17.53
2019-02-07T02:28:03.929Z,17.43
2019-02-07T02:30:39.171Z,17.90
2019-02-07T02:33:09.385Z,17.90
2019-02-07T02:35:39.613Z,18.60
2019-02-07T02:38:09.833Z,18.37
2019-02-07T02:40:41.594Z,18.73
2019-02-07T02:43:12.227Z,19.23
2019-02-07T02:45:42.784Z,19.00
2019-02-07T02:48:16.014Z,18.30
2019-02-07T02:50:47.899Z,19.40
2019-02-07T02:53:19.147Z,18.23
2019-02-07T02:55:52.337Z,19.07
2019-02-07T02:58:24.959Z,18.90
2019-02-07T03:01:23.139Z,18.87
2019-02-07T03:04:15.121Z,17.70
2019-02-07T03:07:04.425Z,18.50
2019-02-07T03:10:03.359Z,19.17
2019-02-07T03:12:51.161Z,18.63
2019-02-07T03:15:55.709Z,18.33
2019-02-07T03:18:44.546Z,18.57
2019-02-07T03:21:33.589Z,18.20
2019-02-07T03:24:26.608Z,18.20
2019-02-07T03:27:16.122Z,18.17
2019-02-07T03:30:04.760Z,18.50
2019-02-07T03:32:51.351Z,18.33
2019-02-07T03:35:50.414Z,17.77
2019-02-07T03:38:52.164Z,17.63
2019-02-07T03:41:34.286Z,17.63
2019-02-07T03:44:40.698Z,17.43
2019-02-07T03:47:34.627Z,17.93
2019-02-07T03:50:25.487Z,17.50
2019-02-07T03:53:33.922Z,16.93
2019-02-07T03:56:23.945Z,17.63
2019-02-07T03:59:15.876Z,17.17
2019-02-07T04:02:12.773Z,16.90
2019-02-07T04:05:02.514Z,17.83
2019-02-07T04:08:04.466Z,17.47
2019-02-07T04:10:53.380Z,17.60
2019-02-07T04:13:36.136Z,16.90
2019-02-07T04:16:32.344Z,17.00
2019-02-07T04:19:20.632Z,16.67
2019-02-07T04:22:11.501Z,16.90
2019-02-07T04:25:02.351Z,16.53
2019-02-07T04:27:58.932Z,16.73
2019-02-07T04:31:04.255Z,17.30
2019-02-07T04:34:11.694Z,16.63
2019-02-07T04:36:54.613Z,16.73
2019-02-07T04:39:40.073Z,18.27
2019-02-07T04:42:35.202Z,18.07
2019-02-07T04:45:31.335Z,17.90
2019-02-07T04:48:38.357Z,16.67
2019-02-07T04:51:18.129Z,15.97
2019-02-07T04:54:11.014Z,15.93
2019-02-07T04:57:08.025Z,15.57
2019-02-07T05:00:13.420Z,15.67
2019-02-07T05:03:07.065Z,16.83
2019-02-07T05:05:55.380Z,15.80
2019-02-07T05:08:39.073Z,16.00
2019-02-07T05:11:47.697Z,16.93
2019-02-07T05:14:41.943Z,16.10
2019-02-07T05:17:50.319Z,15.87
2019-02-07T05:20:30.764Z,15.87
2019-02-07T05:23:27.323Z,15.57
2019-02-07T05:26:22.836Z,15.67
2019-02-07T05:29:08.912Z,15.50
2019-02-07T05:31:58.167Z,15.80
2019-02-07T05:34:53.067Z,15.63
2019-02-07T05:37:41.782Z,15.47
2019-02-07T05:40:32.944Z,16.13
2019-02-07T05:43:26.654Z,16.90
2019-02-07T05:46:30.857Z,15.53
2019-02-07T05:49:28.849Z,15.00
2019-02-07T05:52:27.605Z,14.80
2019-02-07T05:55:18.104Z,13.73
2019-02-07T05:58:14.559Z,14.00
2019-02-07T06:01:16.512Z,14.17
2019-02-07T06:04:19.941Z,13.87
2019-02-07T06:07:22.213Z,13.10
2019-02-07T06:10:30.182Z,13.03
2019-02-07T06:13:19.185Z,12.90
2019-02-07T06:16:13.136Z,12.87
2019-02-07T06:19:07.714Z,12.77
2019-02-07T06:22:02.528Z,12.23
2019-02-07T06:24:47.371Z,12.73
2019-02-07T06:27:39.067Z,12.60
2019-02-07T06:30:31.182Z,13.27
2019-02-07T06:33:21.561Z,12.37
2019-02-07T06:36:20.887Z,13.27
2019-02-07T06:39:18.691Z,12.77
2019-02-07T06:42:09.131Z,13.17
2019-02-07T06:44:57.316Z,12.93
2019-02-07T06:48:03.666Z,12.77
2019-02-07T06:51:05.519Z,12.63
2019-02-07T06:53:56.667Z,12.60
2019-02-07T06:56:54.297Z,12.00
2019-02-07T06:59:43.520Z,12.87
2019-02-07T07:02:37.622Z,12.40
2019-02-07T07:05:39.273Z,12.13
2019-02-07T07:08:38.224Z,12.13
2019-02-07T07:11:22.164Z,12.60
2019-02-07T07:13:59.107Z,13.17
2019-02-07T07:16:44.922Z,12.73
2019-02-07T07:19:49.452Z,12.27
2019-02-07T07:22:42.737Z,11.90
2019-02-07T07:25:50.621Z,12.60
2019-02-07T07:28:39.455Z,12.10
2019-02-07T07:31:22.406Z,12.60
2019-02-07T07:34:16.299Z,12.57
2019-02-07T07:37:15.083Z,11.70
2019-02-07T07:40:08.341Z,12.30
2019-02-07T07:43:01.303Z,12.73
2019-02-07T07:45:55.462Z,12.20
2019-02-07T07:49:00.911Z,11.97
2019-02-07T07:51:55.411Z,12.37
2019-02-07T07:54:44.848Z,11.93
2019-02-07T07:57:33.249Z,11.63
2019-02-07T08:00:26.882Z,11.77
2019-02-07T08:03:17.424Z,11.03
2019-02-07T08:06:09.269Z,11.07
2019-02-07T08:08:54.426Z,11.67
2019-02-07T08:11:35.851Z,11.87
2019-02-07T08:14:42.009Z,10.50
2019-02-07T08:17:31.702Z,10.63
2019-02-07T08:20:33.297Z,10.40
2019-02-07T08:23:23.042Z,10.20
2019-02-07T08:26:19.948Z,9.80
2019-02-07T08:29:27.998Z,9.10
2019-02-07T08:32:27.503Z,9.23
2019-02-07T08:35:20.807Z,9.47
2019-02-07T08:38:19.422Z,9.27
2019-02-07T08:41:08.959Z,8.50
2019-02-07T08:44:07.536Z,9.03
2019-02-07T08:46:55.666Z,7.77
2019-02-07T08:49:56.234Z,7.40
2019-02-07T08:52:44.867Z,7.37
2019-02-07T08:55:50.354Z,6.90
2019-02-07T08:58:46.633Z,7.10
2019-02-07T09:01:46.407Z,6.60
2019-02-07T09:04:35.518Z,7.13
2019-02-07T09:07:42.214Z,6.93
2019-02-07T09:10:50.543Z,6.87
2019-02-07T09:13:59.784Z,7.23
2019-02-07T09:16:55.652Z,6.40
2019-02-07T09:19:45.077Z,6.03
2019-02-07T09:22:34.723Z,5.60
2019-02-07T09:25:24.300Z,5.23
2019-02-07T09:28:19.658Z,4.37
2019-02-07T09:31:07.967Z,3.40
2019-02-07T09:33:58.047Z,3.10
2019-02-07T09:36:59.400Z,3.27
2019-02-07T09:39:58.607Z,3.50
2019-02-07T09:42:46.305Z,3.30
2019-02-07T09:45:37.306Z,2.90
2019-02-07T09:48:43.051Z,3.50
2019-02-07T09:51:23.644Z,3.00
2019-02-07T09:54:13.021Z,3.30
2019-02-07T09:57:03.256Z,2.90
2019-02-07T09:59:53.700Z,3.37
2019-02-07T10:02:39.802Z,3.00
2019-02-07T10:05:31.499Z,2.80
2019-02-07T10:08:15.246Z,2.77
2019-02-07T10:11:05.543Z,3.20
2019-02-07T10:13:53.951Z,3.17
2019-02-07T10:16:40.989Z,3.00
2019-02-07T10:19:30.373Z,3.00
2019-02-07T10:22:22.765Z,3.70
2019-02-07T10:25:15.088Z,3.30
2019-02-07T10:28:07.652Z,3.30
2019-02-07T10:31:07.647Z,3.60
2019-02-07T10:34:01.679Z,3.50
2019-02-07T10:36:51.766Z,3.20
2019-02-07T10:39:43.733Z,3.40
2019-02-07T10:42:39.451Z,3.40
2019-02-07T10:45:42.529Z,3.57
2019-02-07T10:48:31.756Z,2.93
2019-02-07T10:51:24.137Z,3.20
2019-02-07T10:54:12.005Z,3.00
2019-02-07T10:57:07.283Z,3.50
2019-02-07T11:00:12.724Z,2.90
2019-02-07T11:03:03.241Z,3.10
2019-02-07T11:09:04.412Z,3.27
2019-02-07T11:12:01.767Z,3.27
2019-02-07T11:14:58.491Z,3.23
2019-02-07T11:18:04.248Z,3.87
2019-02-07T11:21:03.405Z,3.50
2019-02-07T11:23:56.888Z,3.30
2019-02-07T11:26:47.217Z,3.57
2019-02-07T11:29:45.627Z,3.53
2019-02-07T11:32:36.996Z,3.67
2019-02-07T11:35:35.513Z,3.20
2019-02-07T11:38:25.436Z,3.20
2019-02-07T11:41:13.124Z,4.07
2019-02-07T11:44:01.389Z,3.30
2019-02-07T11:47:05.559Z,3.73
2019-02-07T11:49:56.137Z,3.30
2019-02-07T11:52:54.320Z,3.80
2019-02-07T11:56:03.200Z,4.00
2019-02-07T11:58:51.753Z,3.87
2019-02-07T12:01:40.712Z,3.80
2019-02-07T12:04:34.018Z,3.70
2019-02-07T12:07:22.343Z,4.60
2019-02-07T12:10:18.557Z,3.40
2019-02-07T12:13:08.267Z,4.00
2019-02-07T12:15:56.596Z,3.67
2019-02-07T12:19:04.773Z,3.70
2019-02-07T12:21:53.727Z,3.00
2019-02-07T12:25:01.649Z,3.10
2019-02-07T12:27:49.901Z,3.10
2019-02-07T12:30:42.859Z,3.20
2019-02-07T12:33:39.931Z,3.50
2019-02-07T12:36:29.241Z,3.80
2019-02-07T12:39:22.159Z,3.07
2019-02-07T12:42:18.927Z,3.80
2019-02-07T12:45:08.173Z,3.20
2019-02-07T12:47:58.569Z,2.80
2019-02-07T12:50:50.882Z,2.77
2019-02-07T12:53:40.635Z,3.23
2019-02-07T12:56:40.177Z,2.70
2019-02-07T12:59:40.258Z,2.37
2019-02-07T13:02:30.625Z,3.00
2019-02-07T13:05:20.155Z,2.47
2019-02-07T13:08:13.585Z,2.43
2019-02-07T13:11:14.349Z,2.60
2019-02-07T13:14:02.571Z,3.10
2019-02-07T13:16:58.293Z,3.30
2019-02-07T13:19:40.913Z,3.93
2019-02-07T13:22:39.628Z,2.40
2019-02-07T13:25:49.282Z,2.80
2019-02-07T13:28:55.217Z,2.10
2019-02-07T13:31:41.921Z,2.10
2019-02-07T13:34:40.290Z,2.77
2019-02-07T13:37:36.676Z,2.87
2019-02-07T13:40:34.510Z,3.13
2019-02-07T13:43:17.271Z,3.00
2019-02-07T13:46:05.264Z,2.67
2019-02-07T13:48:55.751Z,3.47
2019-02-07T13:52:01.300Z,2.53
2019-02-07T13:55:02.802Z,3.03
2019-02-07T13:58:00.445Z,2.63
2019-02-07T14:00:50.866Z,2.30
2019-02-07T14:03:41.059Z,3.00
2019-02-07T14:06:30.240Z,2.50
2019-02-07T14:09:25.941Z,2.70
2019-02-07T14:12:17.138Z,2.63
2019-02-07T14:15:06.631Z,2.40
2019-02-07T14:17:48.631Z,2.80
2019-02-07T14:20:28.584Z,2.80
2019-02-07T14:23:16.573Z,3.20
2019-02-07T14:26:15.051Z,2.80
2019-02-07T14:29:14.001Z,2.67
2019-02-07T14:32:09.616Z,2.57
2019-02-07T14:35:05.336Z,2.40
2019-02-07T14:37:58.508Z,2.50
2019-02-07T14:40:57.297Z,2.63
2019-02-07T14:43:46.660Z,2.50
2019-02-07T14:46:35.824Z,2.40
2019-02-07T14:49:06.604Z,2.30
2019-02-07T14:51:38.559Z,2.10
2019-02-07T14:54:08.805Z,2.43
2019-02-07T14:56:39.665Z,2.67
2019-02-07T14:59:11.625Z,2.37
2019-02-07T15:01:44.748Z,2.00
2019-02-07T15:04:15.395Z,2.30
2019-02-07T15:06:46.461Z,2.20
2019-02-07T15:09:19.921Z,2.50
2019-02-07T15:11:50.921Z,2.23
2019-02-07T15:14:23.794Z,3.47
2019-02-07T15:16:54.520Z,2.70
2019-02-07T15:19:25.854Z,2.57
2019-02-07T15:21:56.398Z,2.97
2019-02-07T15:24:27.103Z,2.17
2019-02-07T15:26:57.959Z,2.70
2019-02-07T15:29:30.411Z,2.30
2019-02-07T15:32:01.499Z,3.50
2019-02-07T15:34:32.735Z,3.00
2019-02-07T15:37:05.537Z,3.37
2019-02-07T15:39:36.596Z,3.00
2019-02-07T15:42:07.294Z,2.30
2019-02-07T15:44:39.705Z,2.70
2019-02-07T15:47:13.583Z,2.50
2019-02-07T15:49:44.116Z,2.80
2019-02-07T15:52:15.400Z,2.37
2019-02-07T15:54:46.125Z,2.70
2019-02-07T15:57:18.151Z,2.43
2019-02-07T15:59:58.809Z,2.47
2019-02-07T16:02:42.179Z,2.70
2019-02-07T16:05:17.175Z,2.30
2019-02-07T16:07:49.054Z,2.30
2019-02-07T16:10:22.839Z,2.27
2019-02-07T16:12:53.425Z,2.27
2019-02-07T16:15:25.968Z,2.40
2019-02-07T16:17:59.781Z,2.30
2019-02-07T16:20:31.637Z,1.87
2019-02-07T16:23:04.074Z,2.20
2019-02-07T16:25:35.526Z,2.30
2019-02-07T16:28:06.201Z,2.70
2019-02-07T16:30:37.770Z,2.33
2019-02-07T16:33:09.900Z,2.20
2019-02-07T16:35:41.336Z,2.20
2019-02-07T16:38:13.772Z,2.30
2019-02-07T16:40:46.699Z,2.63
2019-02-07T16:43:18.067Z,2.60
2019-02-07T16:45:50.396Z,2.53
2019-02-07T16:48:24.649Z,2.30
2019-02-07T16:51:00.411Z,2.77
2019-02-07T16:53:30.054Z,2.73
2019-02-07T16:56:02.137Z,3.13
2019-02-07T16:58:33.431Z,3.23
2019-02-07T17:01:09.797Z,3.10
2019-02-07T17:03:41.593Z,2.60
2019-02-07T17:06:15.788Z,2.83
2019-02-07T17:08:47.186Z,2.37
2019-02-07T17:11:18.010Z,2.40
2019-02-07T17:13:48.593Z,2.77
2019-02-07T17:16:21.988Z,2.90
2019-02-07T17:18:53.571Z,3.33
2019-02-07T17:21:24.399Z,3.97
2019-02-07T17:23:54.683Z,3.10
2019-02-07T17:26:26.604Z,2.90
2019-02-07T17:28:58.436Z,2.57
2019-02-07T17:31:30.953Z,2.70
2019-02-07T17:34:01.638Z,3.30
2019-02-07T17:36:34.329Z,2.73
2019-02-07T17:39:07.451Z,2.60
2019-02-07T17:41:39.521Z,2.57
2019-02-07T17:44:10.255Z,2.87
2019-02-07T17:46:42.367Z,2.63
2019-02-07T17:49:13.059Z,2.77
2019-02-07T17:51:46.128Z,2.50
2019-02-07T17:54:18.901Z,3.17
2019-02-07T17:56:50.586Z,2.70
2019-02-07T17:59:23.259Z,2.77
2019-02-07T18:01:55.232Z,2.70
2019-02-07T18:04:29.531Z,1.83
2019-02-07T18:07:00.328Z,2.80
2019-02-07T18:09:33.031Z,3.40
2019-02-07T18:12:04.820Z,3.47
2019-02-07T18:14:37.699Z,3.00
2019-02-07T18:17:09.609Z,2.40
2019-02-07T18:19:42.260Z,3.43
2019-02-07T18:22:17.803Z,2.80
2019-02-07T18:24:49.239Z,2.63
2019-02-07T18:27:24.137Z,2.67
2019-02-07T18:29:55.071Z,3.00
2019-02-07T18:32:26.304Z,4.37
2019-02-07T18:34:56.936Z,3.73
2019-02-07T18:37:27.204Z,2.57
2019-02-07T18:39:58.770Z,2.90
2019-02-07T18:42:29.101Z,2.97
2019-02-07T18:45:01.165Z,3.47
2019-02-07T18:47:32.555Z,4.33
2019-02-07T18:50:04.112Z,3.77
2019-02-07T18:52:35.232Z,3.37
2019-02-07T18:55:06.704Z,2.73
2019-02-07T18:57:39.672Z,2.83
2019-02-07T19:00:15.747Z,3.00
2019-02-07T19:02:48.400Z,2.70
2019-02-07T19:05:22.175Z,2.27
2019-02-07T19:07:53.299Z,2.27
2019-02-07T19:10:26.342Z,2.37
2019-02-07T19:12:57.998Z,2.33
2019-02-07T19:15:38.556Z,2.20
2019-02-07T19:18:10.468Z,2.37
2019-02-07T19:20:43.935Z,2.57
2019-02-07T19:23:14.977Z,2.40
2019-02-07T19:25:45.837Z,2.20
2019-02-07T19:28:21.357Z,2.97
2019-02-07T19:30:52.312Z,2.43
2019-02-07T19:33:25.722Z,2.37
2019-02-07T19:35:56.232Z,2.60
2019-02-07T19:38:27.146Z,2.30
2019-02-07T19:40:59.489Z,2.30
2019-02-07T19:43:30.630Z,2.53
2019-02-07T19:46:01.276Z,2.53
2019-02-07T19:48:32.749Z,2.73
2019-02-07T19:51:03.741Z,2.27
2019-02-07T19:53:34.305Z,2.67
2019-02-07T19:56:06.141Z,2.90
2019-02-07T19:58:39.662Z,3.40
2019-02-07T20:01:14.009Z,2.87
2019-02-07T20:03:47.827Z,3.07
2019-02-07T20:06:20.676Z,2.83
2019-02-07T20:08:52.949Z,2.30
2019-02-07T20:11:26.576Z,2.60
2019-02-07T20:14:02.328Z,2.60
2019-02-07T20:16:34.927Z,2.43
2019-02-07T20:19:12.243Z,2.87
2019-02-07T20:21:44.733Z,2.47
2019-02-07T20:24:17.838Z,2.50
2019-02-07T20:26:51.344Z,2.27
2019-02-07T20:29:23.409Z,2.57
2019-02-07T20:31:56.014Z,2.70
2019-02-07T20:34:28.860Z,3.30
2019-02-07T20:37:02.117Z,3.10
2019-02-07T20:39:36.719Z,2.33
2019-02-07T20:42:10.635Z,2.67
2019-02-07T20:44:44.415Z,2.57
2019-02-07T20:47:22.317Z,3.13
2019-02-07T20:49:56.303Z,2.50
2019-02-07T20:52:28.113Z,2.53
2019-02-07T20:54:59.570Z,2.70
2019-02-07T20:57:32.225Z,2.50
2019-02-07T21:00:06.167Z,2.20
2019-02-07T21:02:39.924Z,2.40
2019-02-07T21:05:15.531Z,2.53
2019-02-07T21:07:49.217Z,2.10
2019-02-07T21:10:23.229Z,2.20
2019-02-07T21:12:56.792Z,2.87
2019-02-07T21:15:31.229Z,2.50
2019-02-07T21:18:03.831Z,2.40
2019-02-07T21:20:38.095Z,2.60
2019-02-07T21:23:23.145Z,2.50
2019-02-07T21:25:56.166Z,2.10
2019-02-07T21:28:28.255Z,2.10
2019-02-07T21:31:01.274Z,1.93
2019-02-07T21:33:33.536Z,1.80
2019-02-07T21:36:07.749Z,2.10
2019-02-07T21:38:39.245Z,1.80
2019-02-07T21:41:12.299Z,1.60
2019-02-07T21:43:44.549Z,2.27
2019-02-07T21:46:17.716Z,2.27
2019-02-07T21:48:50.168Z,2.20
2019-02-07T21:51:24.884Z,1.90
2019-02-07T21:53:58.814Z,2.20
2019-02-07T21:56:31.420Z,2.20
2019-02-07T21:59:01.996Z,1.70
2019-02-07T22:01:33.736Z,2.23
2019-02-07T22:04:07.616Z,1.70
2019-02-07T22:06:41.597Z,2.47
2019-02-07T22:09:14.066Z,2.40
2019-02-07T22:11:44.762Z,1.70
2019-02-07T22:14:16.549Z,1.80
2019-02-07T22:16:48.997Z,1.93
2019-02-07T22:19:19.912Z,2.00
2019-02-07T22:21:55.095Z,2.07
2019-02-07T22:24:29.338Z,1.67
2019-02-07T22:27:02.327Z,2.07
2019-02-07T22:29:32.511Z,2.20
2019-02-07T22:32:03.076Z,2.53
2019-02-07T22:34:36.477Z,1.83
2019-02-07T22:37:09.499Z,2.20
2019-02-07T22:39:41.365Z,2.13
2019-02-07T22:42:12.332Z,2.33
2019-02-07T22:44:43.141Z,2.50
2019-02-07T22:47:13.545Z,2.13
2019-02-07T22:49:45.374Z,2.07
2019-02-07T22:52:17.597Z,1.77
2019-02-07T22:54:48.692Z,1.90
2019-02-07T22:57:19.525Z,1.87
2019-02-07T22:59:49.726Z,2.00
2019-02-07T23:02:20.750Z,2.30
2019-02-07T23:04:52.333Z,1.80
2019-02-07T23:07:24.331Z,2.30
2019-02-07T23:09:55.703Z,2.00
2019-02-07T23:12:28.488Z,2.37
2019-02-07T23:15:00.442Z,1.90
2019-02-07T23:17:31.540Z,2.00
2019-02-07T23:20:02.922Z,1.90
2019-02-07T23:22:35.737Z,2.40
2019-02-07T23:25:07.091Z,1.80
2019-02-07T23:27:37.692Z,1.90
2019-02-07T23:30:09.620Z,2.00
2019-02-07T23:32:40.653Z,2.00
2019-02-07T23:35:12.065Z,2.30
2019-02-07T23:37:44.854Z,1.87
2019-02-07T23:40:16.389Z,1.60
2019-02-07T23:42:49.294Z,1.70
2019-02-07T23:45:21.178Z,1.80
2019-02-07T23:47:52.090Z,1.93
2019-02-07T23:50:23.126Z,2.00
2019-02-07T23:52:56.869Z,1.90
2019-02-07T23:55:28.675Z,1.90
2019-02-07T23:57:59.239Z,1.60
